createdAt,value
2018-06-17T00:01:02.449Z,100673.58
2018-06-17T00:03:33.056Z,100671.31
2018-06-17T00:06:02.578Z,100676.67
2018-06-17T00:08:32.087Z,100673.80
2018-06-17T00:11:01.468Z,100674.97
2018-06-17T00:13:29.896Z,100672.73
2018-06-17T00:15:58.375Z,100678.42
2018-06-17T00:18:26.882Z,100682.00
2018-06-17T00:20:56.120Z,100681.77
2018-06-17T00:23:24.540Z,100681.94
2018-06-17T00:25:53.040Z,100689.15
2018-06-17T00:28:21.486Z,100691.22
2018-06-17T00:30:50.566Z,100686.05
2018-06-17T00:33:18.956Z,100692.13
2018-06-17T00:35:47.633Z,100687.04
2018-06-17T00:38:16.170Z,100683.81
2018-06-17T00:40:46.141Z,100686.36
2018-06-17T00:43:14.545Z,100684.91
2018-06-17T00:45:43.009Z,100690.12
2018-06-17T00:48:11.449Z,100688.63
2018-06-17T00:50:39.973Z,100694.33
2018-06-17T00:53:08.369Z,100696.03
2018-06-17T00:55:36.787Z,100701.73
2018-06-17T00:58:05.304Z,100694.98
2018-06-17T01:00:34.003Z,100697.16
2018-06-17T01:03:02.419Z,100694.38
2018-06-17T01:05:30.937Z,100695.60
2018-06-17T01:07:59.410Z,100690.27
2018-06-17T01:10:28.404Z,100696.34
2018-06-17T01:12:56.809Z,100695.40
2018-06-17T01:15:25.453Z,100696.73
2018-06-17T01:17:54.359Z,100698.44
2018-06-17T01:20:22.852Z,100698.92
2018-06-17T01:22:51.284Z,100696.62
2018-06-17T01:25:19.685Z,100696.98
2018-06-17T01:27:48.154Z,100695.65
2018-06-17T01:30:16.753Z,100695.53
2018-06-17T01:32:45.294Z,100692.86
2018-06-17T01:35:13.704Z,100696.38
2018-06-17T01:37:43.395Z,100697.63
2018-06-17T01:40:11.876Z,100701.64
2018-06-17T01:42:40.254Z,100708.67
2018-06-17T01:45:08.666Z,100700.19
2018-06-17T01:47:37.056Z,100698.85
2018-06-17T01:50:05.558Z,100697.03
2018-06-17T01:52:33.988Z,100704.07
2018-06-17T01:55:02.422Z,100707.11
2018-06-17T01:57:30.954Z,100697.77
2018-06-17T01:59:59.448Z,100701.77
2018-06-17T02:02:27.943Z,100700.44
2018-06-17T02:05:01.609Z,100699.47
2018-06-17T02:07:35.310Z,100706.62
2018-06-17T02:10:09.177Z,100704.44
2018-06-17T02:12:37.625Z,100703.47
2018-06-17T02:15:08.288Z,100698.13
2018-06-17T02:17:36.765Z,100698.13
2018-06-17T02:20:05.292Z,100699.47
2018-06-17T02:22:33.830Z,100698.53
2018-06-17T02:25:02.317Z,100695.47
2018-06-17T02:27:30.790Z,100701.20
2018-06-17T02:29:59.199Z,100703.02
2018-06-17T02:32:27.660Z,100700.35
2018-06-17T02:34:56.032Z,100690.53
2018-06-17T02:37:24.406Z,100694.53
2018-06-17T02:39:52.892Z,100688.70
2018-06-17T02:42:21.721Z,100687.01
2018-06-17T02:44:55.427Z,100691.86
2018-06-17T02:47:29.189Z,100683.86
2018-06-17T02:50:01.801Z,100693.20
2018-06-17T02:52:35.694Z,100703.39
2018-06-17T02:55:04.098Z,100700.72
2018-06-17T02:57:32.580Z,100702.05
2018-06-17T03:00:01.072Z,100703.88
2018-06-17T03:02:30.485Z,100702.14
2018-06-17T03:04:58.866Z,100707.02
2018-06-17T03:07:27.240Z,100713.20
2018-06-17T03:09:55.736Z,100716.36
2018-06-17T03:12:24.235Z,100717.70
2018-06-17T03:14:53.505Z,100721.22
2018-06-17T03:17:21.934Z,100720.36
2018-06-17T03:19:50.393Z,100724.73
2018-06-17T03:22:18.849Z,100717.21
2018-06-17T03:24:52.849Z,100722.15
2018-06-17T03:27:27.192Z,100723.48
2018-06-17T03:30:01.391Z,100727.03
2018-06-17T03:32:35.264Z,100731.03
2018-06-17T03:35:08.946Z,100730.55
2018-06-17T03:37:37.381Z,100723.48
2018-06-17T03:40:05.819Z,100728.81
2018-06-17T03:42:35.027Z,100728.37
2018-06-17T03:45:03.712Z,100735.48
2018-06-17T03:47:32.116Z,100731.48
2018-06-17T03:50:00.513Z,100740.38
2018-06-17T03:52:29.012Z,100735.97
2018-06-17T03:54:57.492Z,100736.83
2018-06-17T03:57:25.973Z,100728.45
2018-06-17T03:59:54.435Z,100740.83
2018-06-17T04:02:23.266Z,100740.83
2018-06-17T04:04:57.237Z,100746.16
2018-06-17T04:07:25.679Z,100747.12
2018-06-17T04:09:54.109Z,100743.13
2018-06-17T04:12:22.625Z,100744.46
2018-06-17T04:14:51.134Z,100743.13
2018-06-17T04:17:19.594Z,100737.91
2018-06-17T04:19:48.011Z,100740.46
2018-06-17T04:22:16.727Z,100736.09
2018-06-17T04:24:45.205Z,100746.77
2018-06-17T04:27:13.593Z,100740.09
2018-06-17T04:29:42.009Z,100748.09
2018-06-17T04:32:10.478Z,100746.65
2018-06-17T04:34:39.406Z,100742.39
2018-06-17T04:37:07.857Z,100752.95
2018-06-17T04:39:36.608Z,100744.09
2018-06-17T04:42:05.550Z,100748.95
2018-06-17T04:44:34.150Z,100749.06
2018-06-17T04:47:02.761Z,100750.40
2018-06-17T04:49:31.764Z,100748.58
2018-06-17T04:52:00.550Z,100746.77
2018-06-17T04:54:31.976Z,100744.58
2018-06-17T04:57:00.409Z,100749.43
2018-06-17T04:59:28.936Z,100745.06
2018-06-17T05:01:57.404Z,100747.25
2018-06-17T05:04:27.144Z,100747.73
2018-06-17T05:06:55.526Z,100742.02
2018-06-17T05:09:24.200Z,100746.39
2018-06-17T05:11:52.861Z,100747.73
2018-06-17T05:14:21.601Z,100737.06
2018-06-17T05:16:50.132Z,100734.39
2018-06-17T05:19:18.944Z,100728.20
2018-06-17T05:21:47.429Z,100743.73
2018-06-17T05:24:16.709Z,100742.77
2018-06-17T05:26:45.132Z,100742.39
2018-06-17T05:29:13.756Z,100746.77
2018-06-17T05:31:42.229Z,100739.24
2018-06-17T05:34:10.978Z,100745.06
2018-06-17T05:36:41.842Z,100741.54
2018-06-17T05:39:12.332Z,100748.21
2018-06-17T05:41:40.739Z,100746.39
2018-06-17T05:44:09.240Z,100746.39
2018-06-17T05:46:38.029Z,100747.36
2018-06-17T05:49:06.787Z,100751.37
2018-06-17T05:51:35.372Z,100750.88
2018-06-17T05:54:04.133Z,100751.37
2018-06-17T05:56:32.700Z,100751.73
2018-06-17T05:59:01.184Z,100749.06
2018-06-17T06:01:29.655Z,100747.84
2018-06-17T06:03:58.753Z,100755.73
2018-06-17T06:06:27.160Z,100757.55
2018-06-17T06:08:55.572Z,100764.22
2018-06-17T06:11:24.237Z,100757.55
2018-06-17T06:13:52.725Z,100763.73
2018-06-17T06:16:21.288Z,100760.22
2018-06-17T06:18:49.670Z,100757.55
2018-06-17T06:21:18.067Z,100757.06
2018-06-17T06:23:46.527Z,100757.19
2018-06-17T06:26:14.988Z,100763.00
2018-06-17T06:28:43.384Z,100766.89
2018-06-17T06:31:12.036Z,100763.00
2018-06-17T06:33:40.515Z,100765.19
2018-06-17T06:36:09.021Z,100771.01
2018-06-17T06:38:37.462Z,100771.86
2018-06-17T06:41:05.973Z,100771.01
2018-06-17T06:43:35.804Z,100769.27
2018-06-17T06:46:04.984Z,100769.67
2018-06-17T06:48:33.382Z,100776.34
2018-06-17T06:51:01.887Z,100768.34
2018-06-17T06:53:30.342Z,100769.19
2018-06-17T06:55:58.753Z,100765.67
2018-06-17T06:58:27.169Z,100765.67
2018-06-17T07:00:55.594Z,100771.94
2018-06-17T07:03:35.572Z,100771.94
2018-06-17T07:06:15.221Z,100778.24
2018-06-17T07:08:54.848Z,100778.24
2018-06-17T07:11:23.268Z,100769.88
2018-06-17T07:13:52.576Z,100785.14
2018-06-17T07:16:32.177Z,100776.37
2018-06-17T07:19:00.625Z,100776.97
2018-06-17T07:21:29.012Z,100778.67
2018-06-17T07:23:57.729Z,100772.97
2018-06-17T07:26:39.578Z,100775.63
2018-06-17T07:29:19.721Z,100785.45
2018-06-17T07:31:48.116Z,100791.75
2018-06-17T07:34:17.115Z,100787.27
2018-06-17T07:36:45.632Z,100797.94
2018-06-17T07:40:25.245Z,100788.72
2018-06-17T07:42:54.000Z,100800.23
2018-06-17T07:45:22.541Z,100794.91
2018-06-17T07:47:50.966Z,100798.91
2018-06-17T07:50:30.623Z,100800.72
2018-06-17T07:53:10.347Z,100796.23
2018-06-17T07:55:38.924Z,100791.87
2018-06-17T07:58:07.560Z,100791.38
2018-06-17T08:00:35.952Z,100796.72
2018-06-17T08:03:04.905Z,100806.91
2018-06-17T08:05:33.654Z,100795.88
2018-06-17T08:08:02.213Z,100800.35
2018-06-17T08:10:30.900Z,100793.69
2018-06-17T08:13:00.370Z,100801.20
2018-06-17T08:15:28.916Z,100800.35
2018-06-17T08:17:57.366Z,100793.39
2018-06-17T08:20:25.824Z,100799.50
2018-06-17T08:22:54.235Z,100795.95
2018-06-17T08:25:22.789Z,100795.09
2018-06-17T08:27:51.197Z,100798.53
2018-06-17T08:30:28.611Z,100797.77
2018-06-17T08:32:57.617Z,100795.09
2018-06-17T08:35:26.419Z,100802.17
2018-06-17T08:37:54.885Z,100808.36
2018-06-17T08:40:23.272Z,100807.88
2018-06-17T08:42:51.745Z,100806.73
2018-06-17T08:45:20.471Z,100817.20
2018-06-17T08:47:49.324Z,100816.44
2018-06-17T08:50:17.792Z,100822.17
2018-06-17T08:52:46.167Z,100810.17
2018-06-17T08:55:14.684Z,100801.40
2018-06-17T08:57:43.312Z,100812.44
2018-06-17T09:02:38.429Z,100805.77
2018-06-17T09:05:07.126Z,100806.73
2018-06-17T09:07:36.541Z,100815.95
2018-06-17T09:10:05.141Z,100817.41
2018-06-17T09:12:33.677Z,100816.06
2018-06-17T09:15:02.222Z,100815.70
2018-06-17T09:17:30.666Z,100831.34
2018-06-17T09:19:59.892Z,100822.85
2018-06-17T09:22:28.351Z,100818.56
2018-06-17T09:24:57.382Z,100820.27
2018-06-17T09:27:26.192Z,100815.81
2018-06-17T09:29:54.649Z,100815.41
2018-06-17T09:32:23.116Z,100819.89
2018-06-17T09:34:52.085Z,100810.55
2018-06-17T09:37:20.805Z,100819.41
2018-06-17T09:39:49.235Z,100820.34
2018-06-17T09:42:17.780Z,100818.75
2018-06-17T09:44:46.353Z,100821.67
2018-06-17T09:47:15.184Z,100818.00
2018-06-17T09:49:43.645Z,100816.44
2018-06-17T09:52:13.069Z,100822.91
2018-06-17T09:54:41.739Z,100818.56
2018-06-17T09:57:10.335Z,100812.13
2018-06-17T09:59:39.903Z,100827.28
2018-06-17T10:02:08.349Z,100824.50
2018-06-17T10:04:36.771Z,100826.20
2018-06-17T10:07:05.392Z,100811.53
2018-06-17T10:09:40.946Z,100818.06
2018-06-17T10:12:09.497Z,100817.40
2018-06-17T10:14:38.023Z,100816.44
2018-06-17T10:17:08.909Z,100826.36
2018-06-17T10:19:37.350Z,100823.70
2018-06-17T10:22:06.831Z,100832.77
2018-06-17T10:24:35.313Z,100833.26
2018-06-17T10:27:04.032Z,100829.81
2018-06-17T10:29:32.692Z,100832.96
2018-06-17T10:32:01.664Z,100827.03
2018-06-17T10:34:30.192Z,100829.81
2018-06-17T10:36:58.737Z,100835.07
2018-06-17T10:39:27.804Z,100836.07
2018-06-17T10:41:56.228Z,100837.11
2018-06-17T10:44:24.736Z,100845.33
2018-06-17T10:46:54.306Z,100848.84
2018-06-17T10:49:23.018Z,100847.14
2018-06-17T10:51:52.122Z,100850.55
2018-06-17T10:54:20.565Z,100847.48
2018-06-17T10:56:49.069Z,100842.18
2018-06-17T10:59:18.165Z,100842.66
2018-06-17T11:01:46.789Z,100849.80
2018-06-17T11:04:15.230Z,100847.06
2018-06-17T11:06:43.669Z,100845.84
2018-06-17T11:09:12.350Z,100837.73
2018-06-17T11:11:41.526Z,100854.95
2018-06-17T11:14:09.990Z,100846.69
2018-06-17T11:16:38.668Z,100847.09
2018-06-17T11:19:07.396Z,100849.11
2018-06-17T11:21:35.977Z,100850.45
2018-06-17T11:24:04.761Z,100845.11
2018-06-17T11:26:33.334Z,100849.48
2018-06-17T11:29:01.882Z,100857.10
2018-06-17T11:31:31.197Z,100855.58
2018-06-17T11:33:59.647Z,100861.02
2018-06-17T11:36:28.125Z,100859.70
2018-06-17T11:38:56.775Z,100858.63
2018-06-17T11:41:25.494Z,100861.58
2018-06-17T11:43:53.958Z,100870.84
2018-06-17T11:46:22.753Z,100868.73
2018-06-17T11:48:51.302Z,100861.05
2018-06-17T11:51:19.988Z,100869.22
2018-06-17T11:53:48.393Z,100877.87
2018-06-17T11:56:16.961Z,100878.84
2018-06-17T11:58:45.721Z,100876.07
2018-06-17T12:01:14.763Z,100878.64
2018-06-17T12:03:43.265Z,100874.84
2018-06-17T12:06:11.767Z,100883.02
2018-06-17T12:08:40.215Z,100887.02
2018-06-17T12:11:08.953Z,100888.83
2018-06-17T12:13:39.409Z,100890.81
2018-06-17T12:16:07.945Z,100890.23
2018-06-17T12:18:36.553Z,100884.73
2018-06-17T12:21:04.973Z,100890.72
2018-06-17T12:23:33.574Z,100892.14
2018-06-17T12:26:02.109Z,100888.55
2018-06-17T12:28:30.652Z,100889.39
2018-06-17T12:30:59.489Z,100892.62
2018-06-17T12:33:28.341Z,100896.60
2018-06-17T12:35:56.897Z,100894.98
2018-06-17T12:38:25.592Z,100892.48
2018-06-17T12:40:54.073Z,100900.70
2018-06-17T12:43:23.645Z,100891.64
2018-06-17T12:45:52.161Z,100893.75
2018-06-17T12:48:20.801Z,100897.53
2018-06-17T12:50:50.135Z,100900.58
2018-06-17T12:53:18.755Z,100899.06
2018-06-17T12:55:48.420Z,100905.62
2018-06-17T12:58:17.151Z,100901.62
2018-06-17T13:00:46.716Z,100906.36
2018-06-17T13:03:15.933Z,100910.73
2018-06-17T13:05:45.095Z,100907.63
2018-06-17T13:08:14.792Z,100910.18
2018-06-17T13:10:43.782Z,100904.84
2018-06-17T13:13:14.258Z,100912.25
2018-06-17T13:15:43.626Z,100915.67
2018-06-17T13:18:12.970Z,100921.48
2018-06-17T13:20:42.028Z,100923.11
2018-06-17T13:23:12.358Z,100930.52
2018-06-17T13:25:40.908Z,100921.19
2018-06-17T13:28:10.914Z,100933.00
2018-06-17T13:30:40.725Z,100919.20
2018-06-17T13:33:09.947Z,100925.37
2018-06-17T13:35:39.137Z,100916.42
2018-06-17T13:38:08.101Z,100917.16
2018-06-17T13:40:37.649Z,100926.87
2018-06-17T13:43:06.734Z,100925.53
2018-06-17T13:45:35.626Z,100929.94
2018-06-17T13:48:06.286Z,100932.98
2018-06-17T13:50:35.323Z,100932.13
2018-06-17T13:53:04.422Z,100934.69
2018-06-17T13:55:34.234Z,100930.69
2018-06-17T13:58:03.948Z,100937.83
2018-06-17T14:00:43.367Z,100940.02
2018-06-17T14:03:13.602Z,100939.64
2018-06-17T14:05:42.999Z,100940.41
2018-06-17T14:08:13.044Z,100949.18
2018-06-17T14:10:42.654Z,100940.62
2018-06-17T14:13:13.352Z,100943.13
2018-06-17T14:15:43.143Z,100942.72
2018-06-17T14:18:11.974Z,100946.34
2018-06-17T14:20:41.287Z,100941.61
2018-06-17T14:23:10.574Z,100938.66
2018-06-17T14:25:39.323Z,100949.78
2018-06-17T14:28:07.833Z,100947.11
2018-06-17T14:30:36.418Z,100943.03
2018-06-17T14:33:05.030Z,100945.70
2018-06-17T14:35:34.370Z,100945.70
2018-06-17T14:38:03.201Z,100949.97
2018-06-17T14:40:35.950Z,100950.32
2018-06-17T14:43:10.152Z,100956.03
2018-06-17T14:45:44.087Z,100950.14
2018-06-17T14:48:18.778Z,100949.95
2018-06-17T14:50:52.571Z,100945.39
2018-06-17T14:53:21.934Z,100947.27
2018-06-17T14:55:51.631Z,100940.20
2018-06-17T14:58:20.168Z,100936.13
2018-06-17T15:00:49.197Z,100935.80
2018-06-17T15:03:17.873Z,100929.14
2018-06-17T15:05:47.001Z,100932.73
2018-06-17T15:08:16.514Z,100936.14
2018-06-17T15:10:45.101Z,100934.33
2018-06-17T15:13:19.330Z,100931.19
2018-06-17T15:15:48.698Z,100930.62
2018-06-17T15:18:18.492Z,100932.33
2018-06-17T15:20:47.143Z,100931.19
2018-06-17T15:23:15.801Z,100934.59
2018-06-17T15:25:44.413Z,100930.03
2018-06-17T15:28:12.958Z,100934.78
2018-06-17T15:30:41.461Z,100927.26
2018-06-17T15:33:15.371Z,100940.97
2018-06-17T15:35:49.084Z,100935.16
2018-06-17T15:38:22.705Z,100941.27
2018-06-17T15:40:57.375Z,100937.70
2018-06-17T15:43:26.353Z,100941.27
2018-06-17T15:45:55.657Z,100931.22
2018-06-17T15:48:24.151Z,100928.33
2018-06-17T15:50:52.656Z,100923.92
2018-06-17T15:53:21.499Z,100927.92
2018-06-17T15:55:50.989Z,100931.15
2018-06-17T15:58:19.569Z,100923.92
2018-06-17T16:00:48.290Z,100920.30
2018-06-17T16:03:18.144Z,100920.59
2018-06-17T16:05:47.824Z,100919.55
2018-06-17T16:08:16.289Z,100921.81
2018-06-17T16:10:44.764Z,100921.26
2018-06-17T16:13:19.057Z,100915.77
2018-06-17T16:15:53.018Z,100922.06
2018-06-17T16:18:27.092Z,100926.44
2018-06-17T16:20:59.648Z,100921.48
2018-06-17T16:23:29.304Z,100923.66
2018-06-17T16:25:59.180Z,100920.33
2018-06-17T16:28:29.235Z,100923.77
2018-06-17T16:30:57.712Z,100921.77
2018-06-17T16:33:26.633Z,100926.92
2018-06-17T16:35:55.205Z,100937.66
2018-06-17T16:38:23.989Z,100939.59
2018-06-17T16:40:52.454Z,100936.73
2018-06-17T16:43:20.906Z,100940.73
2018-06-17T16:45:49.506Z,100942.84
2018-06-17T16:48:17.954Z,100951.22
2018-06-17T16:50:52.226Z,100955.70
2018-06-17T16:53:26.241Z,100951.98
2018-06-17T16:56:00.613Z,100954.92
2018-06-17T16:59:32.908Z,100953.14
2018-06-17T17:02:01.553Z,100946.47
2018-06-17T17:04:30.138Z,100957.41
2018-06-17T17:06:58.668Z,100959.80
2018-06-17T17:09:27.264Z,100958.25
2018-06-17T17:11:55.773Z,100959.98
2018-06-17T17:14:24.246Z,100967.22
2018-06-17T17:16:52.795Z,100960.18
2018-06-17T17:19:21.328Z,100961.51
2018-06-17T17:21:50.614Z,100963.80
2018-06-17T17:24:19.210Z,100971.98
2018-06-17T17:26:48.539Z,100973.32
2018-06-17T17:29:17.058Z,100971.40
2018-06-17T17:31:50.854Z,100970.15
2018-06-17T17:34:25.081Z,100970.73
2018-06-17T17:36:58.811Z,100972.33
2018-06-17T17:39:34.169Z,100974.07
2018-06-17T17:42:02.753Z,100968.92
2018-06-17T17:44:35.353Z,100965.99
2018-06-17T17:47:09.059Z,100970.73
2018-06-17T17:49:37.536Z,100975.11
2018-06-17T17:52:06.062Z,100980.73
2018-06-17T17:54:34.763Z,100982.53
2018-06-17T17:57:03.475Z,100976.13
2018-06-17T17:59:32.045Z,100980.91
2018-06-17T18:02:00.682Z,100979.53
2018-06-17T18:04:30.820Z,100978.20
2018-06-17T18:06:59.489Z,100982.90
2018-06-17T18:09:27.961Z,100983.78
2018-06-17T18:11:57.394Z,100989.67
2018-06-17T18:14:27.121Z,100993.09
2018-06-17T18:16:57.867Z,100992.50
2018-06-17T18:19:27.068Z,100989.57
2018-06-17T18:21:55.784Z,100987.75
2018-06-17T18:24:24.508Z,100986.71
2018-06-17T18:26:58.441Z,100997.78
2018-06-17T18:29:32.169Z,100999.78
2018-06-17T18:32:07.174Z,100999.94
2018-06-17T18:34:41.015Z,101002.62
2018-06-17T18:37:09.643Z,101005.84
2018-06-17T18:39:38.600Z,101006.13
2018-06-17T18:42:07.173Z,101006.54
2018-06-17T18:44:35.797Z,101007.88
2018-06-17T18:47:04.414Z,101005.68
2018-06-17T18:49:33.341Z,101001.48
2018-06-17T18:52:02.109Z,100995.19
2018-06-17T18:54:30.705Z,101001.88
2018-06-17T18:56:59.232Z,100999.40
2018-06-17T18:59:27.825Z,101000.25
2018-06-17T19:01:56.904Z,100998.86
2018-06-17T19:04:25.412Z,100997.14
2018-06-17T19:06:53.946Z,100995.24
2018-06-17T19:09:27.943Z,100996.98
2018-06-17T19:12:01.883Z,101003.06
2018-06-17T19:14:35.606Z,100997.34
2018-06-17T19:17:10.159Z,101002.19
2018-06-17T19:19:38.598Z,101003.73
2018-06-17T19:22:07.315Z,101005.53
2018-06-17T19:24:36.184Z,101002.94
2018-06-17T19:27:05.143Z,101009.91
2018-06-17T19:29:33.709Z,101010.59
2018-06-17T19:32:02.255Z,101013.37
2018-06-17T19:34:30.870Z,101014.03
2018-06-17T19:36:59.524Z,101011.84
2018-06-17T19:39:28.396Z,101014.30
2018-06-17T19:41:56.949Z,101024.98
2018-06-17T19:44:25.442Z,101027.53
2018-06-17T19:46:55.884Z,101028.39
2018-06-17T19:50:29.587Z,101035.25
2018-06-17T19:53:03.236Z,101029.07
2018-06-17T19:55:36.884Z,101037.17
2018-06-17T19:58:10.794Z,101040.87
2018-06-17T20:00:50.449Z,101048.59
2018-06-17T20:03:19.020Z,101055.25
2018-06-17T20:05:47.600Z,101049.17
2018-06-17T20:08:16.168Z,101056.17
2018-06-17T20:10:44.746Z,101049.31
2018-06-17T20:13:13.374Z,101051.22
2018-06-17T20:15:41.865Z,101054.30
2018-06-17T20:18:10.725Z,101056.78
2018-06-17T20:20:39.139Z,101067.83
2018-06-17T20:23:07.769Z,101072.84
2018-06-17T20:25:37.286Z,101075.05
2018-06-17T20:28:05.888Z,101079.42
2018-06-17T20:30:46.634Z,101086.38
2018-06-17T20:33:20.324Z,101087.22
2018-06-17T20:35:54.089Z,101091.21
2018-06-17T20:38:28.084Z,101092.36
2018-06-17T20:41:01.937Z,101096.16
2018-06-17T20:43:49.675Z,101091.10
2018-06-17T20:46:18.541Z,101095.78
2018-06-17T20:48:47.806Z,101097.22
2018-06-17T20:51:16.795Z,101104.74
2018-06-17T20:53:45.945Z,101104.16
2018-06-17T20:56:14.436Z,101108.91
2018-06-17T20:58:43.200Z,101106.65
2018-06-17T21:01:11.780Z,101113.31
2018-06-17T21:03:42.629Z,101111.98
2018-06-17T21:06:12.249Z,101116.91
2018-06-17T21:08:41.642Z,101119.09
2018-06-17T21:11:10.938Z,101119.68
2018-06-17T21:13:40.334Z,101121.87
2018-06-17T21:16:10.179Z,101123.79
2018-06-17T21:18:44.626Z,101125.50
2018-06-17T21:21:19.641Z,101121.13
2018-06-17T21:23:54.564Z,101119.41
2018-06-17T21:27:30.898Z,101120.38
2018-06-17T21:30:01.382Z,101122.26
2018-06-17T21:32:31.453Z,101120.92
2018-06-17T21:35:00.961Z,101123.59
2018-06-17T21:37:30.864Z,101129.88
2018-06-17T21:40:00.401Z,101131.22
2018-06-17T21:42:29.695Z,101134.36
2018-06-17T21:44:59.124Z,101136.66
2018-06-17T21:47:29.381Z,101140.17
2018-06-17T21:49:59.530Z,101138.84
2018-06-17T21:52:29.019Z,101139.80
2018-06-17T21:54:58.177Z,101139.42
2018-06-17T21:57:26.899Z,101144.28
2018-06-17T21:59:56.331Z,101141.69
2018-06-17T22:02:25.411Z,101144.35
2018-06-17T22:04:55.366Z,101137.79
2018-06-17T22:07:24.229Z,101139.23
2018-06-17T22:09:59.161Z,101140.08
2018-06-17T22:12:33.442Z,101134.85
2018-06-17T22:15:07.377Z,101135.70
2018-06-17T22:17:42.294Z,101127.33
2018-06-17T22:20:10.839Z,101127.41
2018-06-17T22:22:39.352Z,101126.47
2018-06-17T22:25:08.387Z,101121.69
2018-06-17T22:27:37.556Z,101123.50
2018-06-17T22:30:06.129Z,101121.69
2018-06-17T22:32:35.344Z,101113.80
2018-06-17T22:35:03.824Z,101122.27
2018-06-17T22:37:32.643Z,101131.98
2018-06-17T22:40:01.405Z,101136.46
2018-06-17T22:42:29.875Z,101137.90
2018-06-17T22:44:58.542Z,101140.19
2018-06-17T22:47:32.317Z,101141.05
2018-06-17T22:50:00.887Z,101139.23
2018-06-17T22:52:29.487Z,101138.86
2018-06-17T22:54:57.959Z,101141.11
2018-06-17T22:57:31.873Z,101137.11
2018-06-17T23:00:05.820Z,101133.22
2018-06-17T23:02:39.555Z,101138.08
2018-06-17T23:05:13.406Z,101132.73
2018-06-17T23:07:47.318Z,101124.74
2018-06-17T23:10:16.356Z,101118.55
2018-06-17T23:12:45.394Z,101129.70
2018-06-17T23:15:13.844Z,101133.32
2018-06-17T23:17:42.425Z,101130.66
2018-06-17T23:20:11.361Z,101127.98
2018-06-17T23:22:39.822Z,101131.98
2018-06-17T23:25:08.277Z,101131.61
2018-06-17T23:27:36.850Z,101131.23
2018-06-17T23:30:05.980Z,101129.42
2018-06-17T23:32:34.577Z,101136.57
2018-06-17T23:35:03.063Z,101141.42
2018-06-17T23:37:32.008Z,101141.05
2018-06-17T23:40:00.640Z,101144.56
2018-06-17T23:42:29.178Z,101145.97
2018-06-17T23:44:58.459Z,101146.83
2018-06-17T23:47:32.190Z,101156.16
2018-06-17T23:50:06.041Z,101158.38
2018-06-17T23:52:39.682Z,101166.82
2018-06-17T23:55:13.451Z,101176.16
2018-06-17T23:57:41.962Z,101166.82
